Detailed Flight Report of Ibrahim CANDAN ;
Number CXD001 
Departure Aerodrome LTFJ 
Arrival Aerodrome LTFE

Map generated by the Great Circle Mapper - copyright © Karl L. Swartz.

Pilot In Command CXD001 : Ibrahim Candan
Aircraft A320 / TC-SCC
Date Of Flight 2019-11-03
Departure Time 18:33 UTC
Arrival Time 19:38 UTC
Block Time 01:05
Distance 285 Nm.
Used Fuel 5,557 Lbs.
   
Detailed Flight Log [2019/11/03 18:10:00]
Flight IATA:C001
Pilot Number:001
Company ICAO:CXD
Aircraft Type:A320
Aircraft Registration:TC-SCC
Departing Airport: LTFJ
Destination Airport: LTFE
Alternate Airport:LTBS
Online: VATSIM
Route:MISRO UT241 CLD UT238 OKESA
Flight Level:30000
No pause
18:10 Zero fuel Weight: 131330 Lbs, Fuel Weight: 11891 Lbs
18:10 VATSIM:LTFJ 031920Z 22004KT 180V240 CAVOK 14/10 Q1017 NOSIG
18:10 VATSIM:LTFE 031920Z 13003KT 110V170 CAVOK 15/14 Q1019 NOSIG
18:11 Slew ON
18:12 Slew OFF
18:15 Parking Brakes off
18:26 VR= 160 Knots
18:26 V2= 166 Knots
18:26 Take-off
18:26 Take off Weight: 142798 Lbs
18:26 Wind: 207º @ 004 Knots Heading: 242º
18:26 POS N40º 53´ 51´´ E029º 18´ 24´´
18:26 N11 84 N12 84
18:26 Gear Up: 168 Knots
18:26 Flaps:2 at 168 Knots
18:27 Flaps:Up at 207 Knots
18:39 TOC
18:39 Fuel Weight: 8966 Lb
18:39 TOD
18:39 Fuel Weight: 8952 Lb
18:41
Wind:255º@025 Knots Heading: 216º Ground Speed: 433 Knots Altitude 29494 ft
18:41 TOC
18:41 Fuel Weight: 8659 Lb
18:53 TOD
18:53 Fuel Weight: 7513 Lb
18:56 Wind:259º@020 Knots Heading: 217º Ground Speed: 403 Knots Altitude 25600 ft
19:09 Flaps:1 at 209 Knots
19:09 Flaps:1 F at 201 Knots
19:09 Flaps:1 at 200 Knots
19:09 Flaps:1 F at 199 Knots
19:09 Flaps:2 at 197 Knots
19:09 Flaps:Full at 196 Knots
19:09 Flaps: at 196 Knots
19:09 Gear Down: 191 Knots
19:10 Flaps: at 169 Knots
19:10 Flaps: at 146 Knots
19:11 Wind:181º@008 Knots Heading: 109º Ground Speed: 146 Knots Altitude 4274 ft
19:16 TouchDown:Rate -154 ft/min Speed: 132 Knots
19:16 VATSIM:LTFE 032020Z 00000KT CAVOK 14/12 Q1019 NOSIG
19:16 Land
19:16 Wind:139º@003 Knots
19:16 Heading: 106º
19:16 Flight Duration: 00:50
19:16 Landing Weight: 137797 Lbs
19:16 POS N37º 15´ 04´´ E027º 39´ 51´´
19:20 Par
king brakes on
19:20 Block to Block Duration: 01:05
19:20 Final Fuel: 6333 Lbls
19:20 Spent Fuel: 5557 Lbls
19:20 Flight Length: 285 NM
19:20 TOD Land Length: 106 NM

Text Link of Flight Log http://www.candanair.net/acars/logs/CXD00120191103181000.txt
   

[ Back ]